createdAt,value
2023-03-18T00:00:49.656Z,7.10
2023-03-18T00:03:19.449Z,7.10
2023-03-18T00:05:46.902Z,7.10
2023-03-18T00:08:16.395Z,7.20
2023-03-18T00:10:43.853Z,7.40
2023-03-18T00:13:11.965Z,7.50
2023-03-18T00:15:40.183Z,7.50
2023-03-18T00:18:09.484Z,7.40
2023-03-18T00:20:36.800Z,7.30
2023-03-18T00:23:06.330Z,7.20
2023-03-18T00:25:34.198Z,7.20
2023-03-18T00:28:01.326Z,7.20
2023-03-18T00:30:31.297Z,7.10
2023-03-18T00:33:01.207Z,7.10
2023-03-18T00:35:28.929Z,7.10
2023-03-18T00:37:56.177Z,7.10
2023-03-18T00:40:28.224Z,7.10
2023-03-18T00:42:55.681Z,7.10
2023-03-18T00:45:23.633Z,7.10
2023-03-18T00:47:50.948Z,7.20
2023-03-18T00:50:18.388Z,7.20
2023-03-18T00:52:45.438Z,7.20
2023-03-18T00:55:15.075Z,7.20
2023-03-18T00:57:44.548Z,7.20
2023-03-18T01:00:12.506Z,7.20
2023-03-18T01:02:39.534Z,7.20
2023-03-18T01:05:11.703Z,7.20
2023-03-18T01:07:39.227Z,7.20
2023-03-18T01:10:07.568Z,7.10
2023-03-18T01:12:38.907Z,7.10
2023-03-18T01:15:09.436Z,7.10
2023-03-18T01:17:36.536Z,7.10
2023-03-18T01:20:04.258Z,7.00
2023-03-18T01:22:31.627Z,7.10
2023-03-18T01:25:03.552Z,7.00
2023-03-18T01:27:30.699Z,7.00
2023-03-18T01:29:58.094Z,7.00
2023-03-18T01:32:25.153Z,6.90
2023-03-18T01:34:52.684Z,6.90
2023-03-18T01:39:49.436Z,6.80
2023-03-18T01:42:18.725Z,6.80
2023-03-18T01:44:46.122Z,6.80
2023-03-18T01:47:13.779Z,6.80
2023-03-18T01:49:49.810Z,6.70
2023-03-18T01:52:24.992Z,6.60
2023-03-18T01:55:05.519Z,6.60
2023-03-18T01:57:33.667Z,6.60
2023-03-18T02:00:01.703Z,6.60
2023-03-18T02:02:29.123Z,6.60
2023-03-18T02:05:02.120Z,6.60
2023-03-18T02:07:35.893Z,6.60
2023-03-18T02:12:39.374Z,6.60
2023-03-18T02:15:10.947Z,6.60
2023-03-18T02:17:47.585Z,6.60
2023-03-18T02:20:27.164Z,6.60
2023-03-18T02:23:00.747Z,6.60
2023-03-18T02:25:50.190Z,6.60
2023-03-18T02:28:22.700Z,6.60
2023-03-18T02:30:57.388Z,6.60
2023-03-18T02:33:30.122Z,6.60
2023-03-18T02:36:09.230Z,6.50
2023-03-18T02:38:40.226Z,6.50
2023-03-18T02:41:14.377Z,6.50
2023-03-18T02:43:41.298Z,6.40
2023-03-18T02:46:30.087Z,6.40
2023-03-18T02:49:00.451Z,6.40
2023-03-18T02:51:30.863Z,6.30
2023-03-18T02:54:04.632Z,6.30
2023-03-18T02:56:31.974Z,6.30
2023-03-18T02:58:59.117Z,6.20
2023-03-18T03:01:26.490Z,6.20
2023-03-18T03:03:53.547Z,6.10
2023-03-18T03:06:20.913Z,6.10
2023-03-18T03:08:48.011Z,6.10
2023-03-18T03:11:16.488Z,6.10
2023-03-18T03:13:44.346Z,6.10
2023-03-18T03:16:14.335Z,6.00
2023-03-18T03:18:42.154Z,6.00
2023-03-18T03:21:10.084Z,6.00
2023-03-18T03:23:37.681Z,5.90
2023-03-18T03:26:05.589Z,5.90
2023-03-18T03:28:33.749Z,5.90
2023-03-18T03:31:01.711Z,6.00
2023-03-18T03:33:31.236Z,6.00
2023-03-18T03:35:59.444Z,6.00
2023-03-18T03:38:26.990Z,6.00
2023-03-18T03:40:54.383Z,6.00
2023-03-18T03:43:21.645Z,6.00
2023-03-18T03:45:49.022Z,6.00
2023-03-18T03:48:18.356Z,6.00
2023-03-18T03:50:50.040Z,6.00
2023-03-18T03:53:19.969Z,5.90
2023-03-18T03:55:47.280Z,5.90
2023-03-18T03:58:14.316Z,5.90
2023-03-18T04:00:41.663Z,5.80
2023-03-18T04:03:08.812Z,5.80
2023-03-18T04:05:36.241Z,5.80
2023-03-18T04:08:04.210Z,5.80
2023-03-18T04:10:31.787Z,5.70
2023-03-18T04:12:59.014Z,5.70
2023-03-18T04:15:26.379Z,5.80
2023-03-18T04:17:53.639Z,5.70
2023-03-18T04:20:21.594Z,5.70
2023-03-18T04:22:48.601Z,5.70
2023-03-18T04:25:18.462Z,5.70
2023-03-18T04:27:45.472Z,5.70
2023-03-18T04:30:13.703Z,5.70
2023-03-18T04:32:45.227Z,5.70
2023-03-18T04:35:15.093Z,5.60
2023-03-18T04:37:42.188Z,5.70
2023-03-18T04:40:12.765Z,5.70
2023-03-18T04:42:40.365Z,5.60
2023-03-18T04:45:08.122Z,5.60
2023-03-18T04:47:35.125Z,5.60
2023-03-18T04:50:02.698Z,5.60
2023-03-18T04:52:32.234Z,5.60
2023-03-18T04:54:59.560Z,5.60
2023-03-18T04:57:26.574Z,5.60
2023-03-18T04:59:53.951Z,5.60
2023-03-18T05:02:23.239Z,5.60
2023-03-18T05:04:50.621Z,5.60
2023-03-18T05:07:19.903Z,5.60
2023-03-18T05:09:47.331Z,5.60
2023-03-18T05:12:15.388Z,5.60
2023-03-18T05:14:43.703Z,5.60
2023-03-18T05:17:12.601Z,5.70
2023-03-18T05:19:39.948Z,5.80
2023-03-18T05:22:06.993Z,5.80
2023-03-18T05:24:34.473Z,5.80
2023-03-18T05:27:01.606Z,5.80
2023-03-18T05:29:31.826Z,5.80
2023-03-18T05:31:59.025Z,5.80
2023-03-18T05:34:28.805Z,5.80
2023-03-18T05:36:55.837Z,5.90
2023-03-18T05:39:23.183Z,5.90
2023-03-18T05:41:50.268Z,6.00
2023-03-18T05:44:19.806Z,6.10
2023-03-18T05:46:49.044Z,6.20
2023-03-18T05:49:16.508Z,6.20
2023-03-18T05:51:43.570Z,6.30
2023-03-18T05:54:11.203Z,6.20
2023-03-18T05:56:42.985Z,6.30
2023-03-18T05:59:10.339Z,6.40
2023-03-18T06:01:38.097Z,6.40
2023-03-18T06:04:05.900Z,6.50
2023-03-18T06:06:36.049Z,6.50
2023-03-18T06:09:04.352Z,6.50
2023-03-18T06:11:31.503Z,6.50
2023-03-18T06:14:01.533Z,6.60
2023-03-18T06:16:31.476Z,6.70
2023-03-18T06:18:58.828Z,6.80
2023-03-18T06:21:26.305Z,7.00
2023-03-18T06:23:54.089Z,7.20
2023-03-18T06:26:23.576Z,7.20
2023-03-18T06:28:51.023Z,7.30
2023-03-18T06:31:18.317Z,7.30
2023-03-18T06:33:47.944Z,7.30
2023-03-18T06:36:15.027Z,7.50
2023-03-18T06:38:45.141Z,7.60
2023-03-18T06:41:12.415Z,7.60
2023-03-18T06:43:41.984Z,7.70
2023-03-18T06:46:11.331Z,7.80
2023-03-18T06:48:38.716Z,8.00
2023-03-18T06:51:06.889Z,8.10
2023-03-18T06:53:35.116Z,8.00
2023-03-18T06:56:03.285Z,8.00
2023-03-18T06:58:30.613Z,8.50
2023-03-18T07:00:58.676Z,9.10
2023-03-18T07:03:26.257Z,9.40
2023-03-18T07:05:53.640Z,9.70
2023-03-18T07:08:20.980Z,9.30
2023-03-18T07:10:51.505Z,9.20
2023-03-18T07:13:19.110Z,9.00
2023-03-18T07:15:48.398Z,8.80
2023-03-18T07:18:18.024Z,9.00
2023-03-18T07:20:45.070Z,8.90
2023-03-18T07:23:12.423Z,8.90
2023-03-18T07:25:39.591Z,8.70
2023-03-18T07:28:06.960Z,9.10
2023-03-18T07:30:34.135Z,9.50
2023-03-18T07:33:01.604Z,10.10
2023-03-18T07:35:28.660Z,10.90
2023-03-18T07:37:58.243Z,11.70
2023-03-18T07:40:25.266Z,12.40
2023-03-18T07:42:55.107Z,13.30
2023-03-18T07:45:22.155Z,14.30
2023-03-18T07:47:50.924Z,15.30
2023-03-18T07:50:18.060Z,15.90
2023-03-18T07:52:45.468Z,16.30
2023-03-18T07:55:16.997Z,16.40
2023-03-18T07:57:46.715Z,16.40
2023-03-18T08:00:16.037Z,16.30
2023-03-18T08:02:43.529Z,16.00
2023-03-18T08:05:13.571Z,15.80
2023-03-18T08:07:41.247Z,15.90
2023-03-18T08:10:09.308Z,16.10
2023-03-18T08:12:51.603Z,15.30
2023-03-18T08:15:19.539Z,14.90
2023-03-18T08:17:46.954Z,15.10
2023-03-18T08:20:14.435Z,15.20
2023-03-18T08:22:41.798Z,15.40
2023-03-18T08:25:09.532Z,16.10
2023-03-18T08:27:36.873Z,16.50
2023-03-18T08:30:04.520Z,16.90
2023-03-18T08:32:31.975Z,16.40
2023-03-18T08:34:59.110Z,16.70
2023-03-18T08:37:27.689Z,16.70
2023-03-18T08:39:54.786Z,16.50
2023-03-18T08:42:22.251Z,16.80
2023-03-18T08:44:50.333Z,17.70
2023-03-18T08:47:20.362Z,19.10
2023-03-18T08:49:48.716Z,20.50
2023-03-18T08:52:19.681Z,21.80
2023-03-18T08:54:46.861Z,23.30
2023-03-18T08:57:16.434Z,23.30
2023-03-18T08:59:45.712Z,23.50
2023-03-18T09:02:18.263Z,22.70
2023-03-18T09:04:45.807Z,22.40
2023-03-18T09:07:13.801Z,21.90
2023-03-18T09:09:43.910Z,22.20
2023-03-18T09:12:12.016Z,21.50
2023-03-18T09:14:42.193Z,21.20
2023-03-18T09:17:12.053Z,21.30
2023-03-18T09:19:39.351Z,21.30
2023-03-18T09:22:06.966Z,21.60
2023-03-18T09:24:34.032Z,21.80
2023-03-18T09:27:03.722Z,23.10
2023-03-18T09:29:33.382Z,23.90
2023-03-18T09:32:00.780Z,24.80
2023-03-18T09:34:28.042Z,26.10
2023-03-18T09:36:55.456Z,25.90
2023-03-18T09:39:22.726Z,24.80
2023-03-18T09:41:55.914Z,24.00
2023-03-18T09:44:29.146Z,24.10
2023-03-18T09:47:23.996Z,24.00
2023-03-18T09:50:15.513Z,24.90
2023-03-18T09:52:50.877Z,25.40
2023-03-18T09:55:35.728Z,24.70
2023-03-18T09:58:18.333Z,23.80
2023-03-18T10:00:46.422Z,23.60
2023-03-18T10:03:27.809Z,24.20
2023-03-18T10:06:08.198Z,25.50
2023-03-18T10:08:47.292Z,26.40
2023-03-18T10:11:27.365Z,26.30
2023-03-18T10:14:01.421Z,26.00
2023-03-18T10:16:32.258Z,24.90
2023-03-18T10:19:00.240Z,24.80
2023-03-18T10:21:37.629Z,23.20
2023-03-18T10:24:23.464Z,23.40
2023-03-18T10:27:36.643Z,23.60
2023-03-18T10:30:34.950Z,22.90
2023-03-18T10:33:11.142Z,23.20
2023-03-18T10:35:49.882Z,23.50
2023-03-18T10:38:23.110Z,24.20
2023-03-18T10:40:50.825Z,24.20
2023-03-18T10:43:24.460Z,23.90
2023-03-18T10:46:06.399Z,23.70
2023-03-18T10:48:50.674Z,22.90
2023-03-18T10:51:42.661Z,22.30
2023-03-18T10:54:46.299Z,22.30
2023-03-18T10:57:19.499Z,21.80
2023-03-18T10:59:46.652Z,22.40
2023-03-18T11:02:32.225Z,23.40
2023-03-18T11:05:22.326Z,25.00
2023-03-18T11:08:01.517Z,26.20
2023-03-18T11:10:32.939Z,26.80
2023-03-18T11:13:01.906Z,27.20
2023-03-18T11:15:41.992Z,26.80
2023-03-18T11:18:19.500Z,26.40
2023-03-18T11:20:47.544Z,24.00
2023-03-18T11:23:37.061Z,22.80
2023-03-18T11:26:08.770Z,23.20
2023-03-18T11:28:42.088Z,24.10
2023-03-18T11:31:17.693Z,24.60
2023-03-18T11:33:49.748Z,24.10
2023-03-18T11:36:24.283Z,23.90
2023-03-18T11:39:18.530Z,22.40
2023-03-18T11:41:45.597Z,21.10
2023-03-18T11:44:19.157Z,20.10
2023-03-18T11:46:46.160Z,18.90
2023-03-18T11:49:16.678Z,18.00
2023-03-18T11:52:02.759Z,17.20
2023-03-18T11:54:45.243Z,16.80
2023-03-18T11:57:56.352Z,16.40
2023-03-18T12:00:37.302Z,16.30
2023-03-18T12:03:30.491Z,16.10
2023-03-18T12:06:37.593Z,16.10
2023-03-18T12:09:39.412Z,15.80
2023-03-18T12:12:23.765Z,15.60
2023-03-18T12:15:19.833Z,15.50
2023-03-18T12:18:09.219Z,15.40
2023-03-18T12:20:54.993Z,15.10
2023-03-18T12:23:37.044Z,14.80
2023-03-18T12:26:28.963Z,14.70
2023-03-18T12:29:23.417Z,14.50
2023-03-18T12:32:21.169Z,14.60
2023-03-18T12:35:11.276Z,14.50
2023-03-18T12:37:56.899Z,14.50
2023-03-18T12:40:42.506Z,14.40
2023-03-18T12:43:35.936Z,14.40
2023-03-18T12:46:18.357Z,14.40
2023-03-18T12:48:55.682Z,14.30
2023-03-18T12:51:29.152Z,14.30
2023-03-18T12:54:08.016Z,14.30
2023-03-18T12:56:42.652Z,14.30
2023-03-18T12:59:18.512Z,14.30
2023-03-18T13:02:13.430Z,14.30
2023-03-18T13:04:50.466Z,14.30
2023-03-18T13:07:40.701Z,14.20
2023-03-18T13:10:18.856Z,13.90
2023-03-18T13:12:57.845Z,13.70
2023-03-18T13:15:40.279Z,13.60
2023-03-18T13:18:48.863Z,13.80
2023-03-18T13:21:22.023Z,13.80
2023-03-18T13:24:04.444Z,13.70
2023-03-18T13:26:50.036Z,13.80
2023-03-18T13:29:31.085Z,13.70
2023-03-18T13:32:31.767Z,13.70
2023-03-18T13:35:19.449Z,13.70
2023-03-18T13:38:04.555Z,13.60
2023-03-18T13:40:34.846Z,13.40
2023-03-18T13:43:04.342Z,13.30
2023-03-18T13:45:38.820Z,13.30
2023-03-18T13:48:20.463Z,13.20
2023-03-18T13:50:51.274Z,13.20
2023-03-18T13:53:32.565Z,13.20
2023-03-18T13:56:04.039Z,13.10
2023-03-18T13:58:45.811Z,13.00
2023-03-18T14:01:24.121Z,13.10
2023-03-18T14:03:51.321Z,13.10
2023-03-18T14:06:37.065Z,13.20
2023-03-18T14:09:29.972Z,13.30
2023-03-18T14:12:17.375Z,13.20
2023-03-18T14:14:50.229Z,13.10
2023-03-18T14:17:23.386Z,13.10
2023-03-18T14:19:56.898Z,13.10
2023-03-18T14:22:33.624Z,13.10
2023-03-18T14:25:19.025Z,13.10
2023-03-18T14:27:55.215Z,13.20
2023-03-18T14:30:33.879Z,13.10
2023-03-18T14:33:31.877Z,13.10
2023-03-18T14:36:10.099Z,13.20
2023-03-18T14:39:03.442Z,13.30
2023-03-18T14:41:35.740Z,13.20
2023-03-18T14:44:16.968Z,13.10
2023-03-18T14:46:46.100Z,13.10
2023-03-18T14:49:34.276Z,13.20
2023-03-18T14:52:04.607Z,13.20
2023-03-18T14:54:41.073Z,13.30
2023-03-18T14:57:08.365Z,13.20
2023-03-18T14:59:35.728Z,13.20
2023-03-18T15:02:05.778Z,13.20
2023-03-18T15:04:35.574Z,13.00
2023-03-18T15:07:07.112Z,12.80
2023-03-18T15:09:37.063Z,12.80
2023-03-18T15:12:27.761Z,12.70
2023-03-18T15:14:59.958Z,12.70
2023-03-18T15:17:29.161Z,12.60
2023-03-18T15:20:00.423Z,12.60
2023-03-18T15:22:31.369Z,12.60
2023-03-18T15:25:05.525Z,12.50
2023-03-18T15:27:35.416Z,12.40
2023-03-18T15:30:07.640Z,12.40
2023-03-18T15:32:50.261Z,12.40
2023-03-18T15:35:25.125Z,12.30
2023-03-18T15:38:07.349Z,12.30
2023-03-18T15:40:48.629Z,12.20
2023-03-18T15:43:29.605Z,12.10
2023-03-18T15:46:04.824Z,12.00
2023-03-18T15:48:40.327Z,12.00
2023-03-18T15:51:30.347Z,12.00
2023-03-18T15:54:04.222Z,11.90
2023-03-18T15:56:35.603Z,11.90
2023-03-18T15:59:02.628Z,11.80
2023-03-18T16:01:37.820Z,11.90
2023-03-18T16:04:23.747Z,11.90
2023-03-18T16:06:53.926Z,11.80
2023-03-18T16:09:26.129Z,11.70
2023-03-18T16:12:10.679Z,11.60
2023-03-18T16:14:41.021Z,11.60
2023-03-18T16:17:13.061Z,11.60
2023-03-18T16:19:40.148Z,11.70
2023-03-18T16:22:08.778Z,11.60
2023-03-18T16:24:39.437Z,11.60
2023-03-18T16:27:14.463Z,11.60
2023-03-18T16:29:41.601Z,11.60
2023-03-18T16:32:12.382Z,11.60
2023-03-18T16:34:41.077Z,11.50
2023-03-18T16:37:23.881Z,11.50
2023-03-18T16:39:53.972Z,11.40
2023-03-18T16:42:23.770Z,11.30
2023-03-18T16:44:51.939Z,11.30
2023-03-18T16:47:26.317Z,11.20
2023-03-18T16:49:56.028Z,11.20
2023-03-18T16:52:23.463Z,11.10
2023-03-18T16:54:50.548Z,11.10
2023-03-18T16:57:20.752Z,11.10
2023-03-18T16:59:53.714Z,11.10
2023-03-18T17:02:39.114Z,11.00
2023-03-18T17:05:16.463Z,11.00
2023-03-18T17:07:44.741Z,11.00
2023-03-18T17:10:13.742Z,11.00
2023-03-18T17:12:53.467Z,10.90
2023-03-18T17:15:27.664Z,10.90
2023-03-18T17:17:55.177Z,10.80
2023-03-18T17:20:22.501Z,10.80
2023-03-18T17:22:49.896Z,10.70
2023-03-18T17:25:17.516Z,10.70
2023-03-18T17:27:44.869Z,10.70
2023-03-18T17:30:33.160Z,10.60
2023-03-18T17:33:01.653Z,10.60
2023-03-18T17:35:28.853Z,10.60
2023-03-18T17:37:56.321Z,10.50
2023-03-18T17:40:28.338Z,10.50
2023-03-18T17:42:58.181Z,10.50
2023-03-18T17:45:31.515Z,10.50
2023-03-18T17:48:14.246Z,10.50
2023-03-18T17:50:42.556Z,10.50
2023-03-18T17:53:30.189Z,10.50
2023-03-18T17:55:57.813Z,10.40
2023-03-18T17:58:30.244Z,10.40
2023-03-18T18:01:05.497Z,10.40
2023-03-18T18:03:35.761Z,10.30
2023-03-18T18:06:05.592Z,10.30
2023-03-18T18:08:33.733Z,10.30
2023-03-18T18:11:13.224Z,10.20
2023-03-18T18:13:40.616Z,10.20
2023-03-18T18:16:07.874Z,10.10
2023-03-18T18:18:36.522Z,10.10
2023-03-18T18:21:06.078Z,10.10
2023-03-18T18:23:37.695Z,10.10
2023-03-18T18:26:07.476Z,10.10
2023-03-18T18:28:39.912Z,10.00
2023-03-18T18:31:11.772Z,10.00
2023-03-18T18:33:41.991Z,10.00
2023-03-18T18:36:09.744Z,10.00
2023-03-18T18:38:40.012Z,10.00
2023-03-18T18:41:10.032Z,10.10
2023-03-18T18:43:39.973Z,10.20
2023-03-18T18:46:13.433Z,10.20
2023-03-18T18:48:41.242Z,10.30
2023-03-18T18:51:18.840Z,10.30
2023-03-18T18:53:46.769Z,10.30
2023-03-18T18:56:18.149Z,10.20
2023-03-18T18:58:47.021Z,10.10
2023-03-18T19:01:14.695Z,10.00
2023-03-18T19:03:42.193Z,9.90
2023-03-18T19:06:23.382Z,9.90
2023-03-18T19:08:56.702Z,9.90
2023-03-18T19:11:27.104Z,9.90
2023-03-18T19:13:54.645Z,9.80
2023-03-18T19:16:31.320Z,9.80
2023-03-18T19:18:59.502Z,9.80
2023-03-18T19:21:26.949Z,9.80
2023-03-18T19:23:54.736Z,9.80
2023-03-18T19:26:21.952Z,9.80
2023-03-18T19:29:04.836Z,9.80
2023-03-18T19:31:31.978Z,9.80
2023-03-18T19:34:02.384Z,9.70
2023-03-18T19:36:37.906Z,9.70
2023-03-18T19:39:12.719Z,9.70
2023-03-18T19:41:39.790Z,9.70
2023-03-18T19:44:27.411Z,9.70
2023-03-18T19:46:58.252Z,9.70
2023-03-18T19:49:31.573Z,9.70
2023-03-18T19:51:58.759Z,9.70
2023-03-18T19:54:28.532Z,9.70
2023-03-18T19:56:57.135Z,9.70
2023-03-18T19:59:25.715Z,9.80
2023-03-18T20:01:52.761Z,9.70
2023-03-18T20:04:25.604Z,9.70
2023-03-18T20:06:53.489Z,9.70
2023-03-18T20:09:21.229Z,9.70
2023-03-18T20:11:50.430Z,9.70
2023-03-18T20:14:27.980Z,9.60
2023-03-18T20:16:55.508Z,9.60
2023-03-18T20:19:22.959Z,9.60
2023-03-18T20:21:52.614Z,9.60
2023-03-18T20:24:27.234Z,9.60
2023-03-18T20:26:56.791Z,9.60
2023-03-18T20:29:24.165Z,9.50
2023-03-18T20:31:51.210Z,9.60
2023-03-18T20:34:18.550Z,9.60
2023-03-18T20:36:45.727Z,9.60
2023-03-18T20:39:21.106Z,9.50
2023-03-18T20:41:48.581Z,9.50
2023-03-18T20:44:16.107Z,9.60
2023-03-18T20:46:43.140Z,9.50
2023-03-18T20:49:10.535Z,9.50
2023-03-18T20:51:38.356Z,9.50
2023-03-18T20:54:16.312Z,9.50
2023-03-18T20:56:45.996Z,9.50
2023-03-18T20:59:13.565Z,9.50
2023-03-18T21:01:41.520Z,9.50
2023-03-18T21:04:12.174Z,9.50
2023-03-18T21:06:43.060Z,9.50
2023-03-18T21:09:10.431Z,9.50
2023-03-18T21:11:37.778Z,9.50
2023-03-18T21:14:05.194Z,9.50
2023-03-18T21:16:34.632Z,9.50
2023-03-18T21:19:03.118Z,9.50
2023-03-18T21:21:39.649Z,9.50
2023-03-18T21:24:33.133Z,9.50
2023-03-18T21:27:05.139Z,9.50
2023-03-18T21:29:33.501Z,9.40
2023-03-18T21:32:00.776Z,9.40
2023-03-18T21:34:28.293Z,9.40
2023-03-18T21:36:57.846Z,9.40
2023-03-18T21:39:27.507Z,9.40
2023-03-18T21:41:54.683Z,9.40
2023-03-18T21:44:21.983Z,9.40
2023-03-18T21:46:49.018Z,9.40
2023-03-18T21:49:18.808Z,9.30
2023-03-18T21:51:51.474Z,9.30
2023-03-18T21:54:21.501Z,9.30
2023-03-18T21:56:48.592Z,9.30
2023-03-18T21:59:16.679Z,9.30
2023-03-18T22:01:43.937Z,9.30
2023-03-18T22:04:13.626Z,9.40
2023-03-18T22:06:40.754Z,9.30
2023-03-18T22:09:08.137Z,9.30
2023-03-18T22:11:35.172Z,9.30
2023-03-18T22:14:05.097Z,9.30
2023-03-18T22:16:32.106Z,9.30
2023-03-18T22:18:59.466Z,9.30
2023-03-18T22:21:27.986Z,9.20
2023-03-18T22:23:55.582Z,9.20
2023-03-18T22:26:23.018Z,9.20
2023-03-18T22:28:50.480Z,9.20
2023-03-18T22:31:26.801Z,9.20
2023-03-18T22:33:54.701Z,9.20
2023-03-18T22:36:22.306Z,9.20
2023-03-18T22:38:52.260Z,9.20
2023-03-18T22:41:22.684Z,9.20
2023-03-18T22:43:52.680Z,9.20
2023-03-18T22:46:19.753Z,9.20
2023-03-18T22:48:47.105Z,9.20
2023-03-18T22:51:24.187Z,9.20
2023-03-18T22:53:53.485Z,9.20
2023-03-18T22:56:23.368Z,9.10
2023-03-18T22:58:53.254Z,9.10
2023-03-18T23:01:26.195Z,9.10
2023-03-18T23:03:55.799Z,9.10
2023-03-18T23:06:25.501Z,9.20
2023-03-18T23:08:53.034Z,9.20
2023-03-18T23:11:20.080Z,9.10
2023-03-18T23:13:50.860Z,9.10
2023-03-18T23:16:20.663Z,9.10
2023-03-18T23:18:51.132Z,9.10
2023-03-18T23:21:23.223Z,9.10
2023-03-18T23:23:51.847Z,9.10
2023-03-18T23:26:19.094Z,9.10
2023-03-18T23:28:46.508Z,9.10
2023-03-18T23:31:17.852Z,9.10
2023-03-18T23:33:45.409Z,9.00
2023-03-18T23:36:12.559Z,9.00
2023-03-18T23:38:42.530Z,9.00
2023-03-18T23:41:12.174Z,9.00
2023-03-18T23:43:39.544Z,9.00
2023-03-18T23:46:06.709Z,9.00
2023-03-18T23:48:34.127Z,9.00
2023-03-18T23:51:01.169Z,9.00
2023-03-18T23:53:28.568Z,9.00
2023-03-18T23:55:55.559Z,9.00
2023-03-18T23:58:22.967Z,9.00
